createdAt,value
2019-03-12T00:02:11.178Z,54.30
2019-03-12T00:05:01.712Z,53.45
2019-03-12T00:07:53.275Z,54.44
2019-03-12T00:10:43.532Z,55.35
2019-03-12T00:13:33.743Z,56.92
2019-03-12T00:16:24.067Z,57.03
2019-03-12T00:19:15.367Z,54.82
2019-03-12T00:22:05.350Z,54.22
2019-03-12T00:24:55.729Z,52.73
2019-03-12T00:27:46.245Z,52.08
2019-03-12T00:30:37.233Z,52.84
2019-03-12T00:33:27.773Z,53.25
2019-03-12T00:36:19.037Z,52.72
2019-03-12T00:39:09.423Z,50.66
2019-03-12T00:42:00.500Z,50.39
2019-03-12T00:44:50.872Z,51.76
2019-03-12T00:47:41.257Z,50.33
2019-03-12T00:50:31.317Z,49.79
2019-03-12T00:53:21.543Z,50.13
2019-03-12T00:56:12.306Z,49.71
2019-03-12T00:59:02.439Z,48.82
2019-03-12T01:01:53.291Z,49.44
2019-03-12T01:04:43.844Z,49.53
2019-03-12T01:07:34.303Z,50.07
2019-03-12T01:10:24.311Z,50.62
2019-03-12T01:13:20.847Z,48.21
2019-03-12T01:16:12.330Z,47.79
2019-03-12T01:19:02.721Z,47.90
2019-03-12T01:21:52.697Z,47.80
2019-03-12T01:24:43.245Z,47.87
2019-03-12T01:27:33.162Z,47.97
2019-03-12T01:30:23.520Z,46.56
2019-03-12T01:33:14.174Z,45.87
2019-03-12T01:36:04.417Z,45.72
2019-03-12T01:38:54.455Z,45.49
2019-03-12T01:41:44.852Z,44.80
2019-03-12T01:44:34.984Z,45.07
2019-03-12T01:47:25.858Z,44.97
2019-03-12T01:50:16.179Z,45.06
2019-03-12T01:53:07.602Z,43.76
2019-03-12T01:55:57.787Z,44.91
2019-03-12T01:58:48.108Z,45.31
2019-03-12T02:01:38.319Z,45.36
2019-03-12T02:04:28.628Z,45.99
2019-03-12T02:07:19.045Z,46.56
2019-03-12T02:10:09.428Z,46.12
2019-03-12T02:12:59.703Z,46.85
2019-03-12T02:15:52.760Z,47.14
2019-03-12T02:18:42.761Z,47.23
2019-03-12T02:21:33.282Z,47.69
2019-03-12T02:24:23.651Z,47.85
2019-03-12T02:27:13.696Z,48.01
2019-03-12T02:30:03.931Z,47.89
2019-03-12T02:32:55.073Z,46.89
2019-03-12T02:35:45.256Z,47.10
2019-03-12T02:38:35.594Z,48.27
2019-03-12T02:41:25.846Z,49.30
2019-03-12T02:44:15.954Z,48.86
2019-03-12T02:47:06.448Z,49.67
2019-03-12T02:49:56.686Z,48.67
2019-03-12T02:52:46.800Z,48.94
2019-03-12T02:55:37.121Z,50.31
2019-03-12T02:58:27.333Z,50.28
2019-03-12T03:01:18.350Z,50.82
2019-03-12T03:04:08.414Z,51.39
2019-03-12T03:07:23.677Z,52.77
2019-03-12T03:10:15.134Z,52.48
2019-03-12T03:13:05.365Z,52.11
2019-03-12T03:15:55.429Z,49.98
2019-03-12T03:18:45.381Z,47.95
2019-03-12T03:21:35.440Z,48.12
2019-03-12T03:24:25.787Z,47.58
2019-03-12T03:27:15.746Z,47.00
2019-03-12T03:30:06.895Z,48.49
2019-03-12T03:32:57.064Z,48.48
2019-03-12T03:35:48.336Z,49.73
2019-03-12T03:38:38.736Z,47.08
2019-03-12T03:41:29.275Z,46.80
2019-03-12T03:44:19.575Z,47.94
2019-03-12T03:47:09.680Z,47.03
2019-03-12T03:49:59.894Z,47.33
2019-03-12T03:52:49.883Z,47.72
2019-03-12T03:55:39.874Z,47.34
2019-03-12T03:58:29.882Z,47.58
2019-03-12T04:01:20.156Z,44.49
2019-03-12T04:04:10.341Z,43.86
2019-03-12T04:07:00.398Z,42.33
2019-03-12T04:09:50.738Z,42.81
2019-03-12T04:12:41.043Z,44.47
2019-03-12T04:15:31.070Z,43.93
2019-03-12T04:18:21.399Z,44.69
2019-03-12T04:21:11.538Z,44.89
2019-03-12T04:24:01.652Z,45.28
2019-03-12T04:26:52.880Z,46.47
2019-03-12T04:29:43.062Z,45.72
2019-03-12T04:32:33.488Z,46.17
2019-03-12T04:35:24.097Z,46.43
2019-03-12T04:38:14.256Z,46.63
2019-03-12T04:41:04.466Z,46.30
2019-03-12T04:43:54.775Z,44.86
2019-03-12T04:46:45.095Z,44.79
2019-03-12T04:49:35.343Z,42.83
2019-03-12T04:52:25.319Z,42.15
2019-03-12T04:55:15.859Z,41.74
2019-03-12T04:58:06.041Z,41.57
2019-03-12T05:00:56.553Z,42.06
2019-03-12T05:03:46.947Z,41.39
2019-03-12T05:06:37.400Z,41.25
2019-03-12T05:09:27.551Z,41.33
2019-03-12T05:12:17.660Z,41.31
2019-03-12T05:15:10.270Z,40.83
2019-03-12T05:18:00.377Z,41.03
2019-03-12T05:20:50.677Z,41.28
2019-03-12T05:23:40.956Z,41.75
2019-03-12T05:26:31.162Z,41.49
2019-03-12T05:29:21.452Z,41.10
2019-03-12T05:32:11.837Z,41.67
2019-03-12T05:35:03.306Z,42.91
2019-03-12T05:37:53.652Z,43.13
2019-03-12T05:40:44.230Z,43.32
2019-03-12T05:43:34.208Z,44.13
2019-03-12T05:46:24.586Z,43.98
2019-03-12T05:49:14.755Z,44.09
2019-03-12T05:52:05.055Z,44.25
2019-03-12T05:54:55.441Z,45.10
2019-03-12T05:57:45.755Z,47.09
2019-03-12T06:00:36.828Z,56.90
2019-03-12T06:03:27.119Z,58.67
2019-03-12T06:06:17.448Z,58.11
2019-03-12T06:09:08.182Z,58.77
2019-03-12T06:11:58.924Z,59.07
2019-03-12T06:14:49.218Z,57.64
2019-03-12T06:17:40.432Z,57.79
2019-03-12T06:20:30.877Z,56.86
2019-03-12T06:23:23.127Z,55.97
2019-03-12T06:26:13.455Z,56.30
2019-03-12T06:29:03.766Z,56.03
2019-03-12T06:32:16.505Z,55.50
2019-03-12T06:35:30.092Z,56.99
2019-03-12T06:38:39.511Z,57.28
2019-03-12T06:41:46.667Z,55.73
2019-03-12T06:44:43.972Z,55.23
2019-03-12T06:47:58.650Z,56.46
2019-03-12T06:51:06.780Z,54.17
2019-03-12T06:54:08.995Z,52.66
2019-03-12T06:57:14.979Z,47.45
2019-03-12T07:00:25.316Z,53.98
2019-03-12T07:03:37.495Z,53.70
2019-03-12T07:06:38.446Z,50.59
2019-03-12T07:09:56.891Z,49.62
2019-03-12T07:13:24.438Z,49.11
2019-03-12T07:16:33.537Z,50.37
2019-03-12T07:19:42.568Z,48.22
2019-03-12T07:22:39.548Z,47.97
2019-03-12T07:25:44.664Z,48.28
2019-03-12T07:28:57.091Z,48.15
2019-03-12T07:32:05.155Z,52.64
2019-03-12T07:35:14.743Z,57.87
2019-03-12T07:38:19.512Z,59.66
2019-03-12T07:41:30.266Z,63.84
2019-03-12T07:44:28.188Z,67.45
2019-03-12T07:47:42.145Z,68.97
2019-03-12T07:50:44.170Z,69.47
2019-03-12T07:54:04.905Z,73.09
2019-03-12T07:57:16.413Z,70.29
2019-03-12T08:00:17.791Z,65.78
2019-03-12T08:03:25.430Z,63.71
2019-03-12T08:06:39.301Z,56.56
2019-03-12T08:09:51.165Z,55.18
2019-03-12T08:12:57.249Z,52.97
2019-03-12T08:16:06.056Z,50.58
2019-03-12T08:19:11.286Z,49.00
2019-03-12T08:22:20.384Z,47.38
2019-03-12T08:25:43.874Z,47.36
2019-03-12T08:28:52.467Z,47.52
2019-03-12T08:32:11.709Z,47.32
2019-03-12T08:35:19.659Z,48.22
2019-03-12T08:38:35.169Z,54.74
2019-03-12T08:41:43.790Z,53.42
2019-03-12T08:44:51.800Z,56.57
2019-03-12T08:48:06.798Z,56.83
2019-03-12T08:51:06.883Z,61.99
2019-03-12T08:54:21.369Z,64.29
2019-03-12T08:57:28.087Z,63.97
2019-03-12T09:00:36.099Z,64.08
2019-03-12T09:04:03.472Z,65.00
2019-03-12T09:07:07.202Z,65.07
2019-03-12T09:10:19.320Z,65.46
2019-03-12T09:13:26.903Z,64.77
2019-03-12T09:16:30.998Z,65.37
2019-03-12T09:19:43.464Z,67.35
2019-03-12T09:23:07.724Z,66.98
2019-03-12T09:26:25.649Z,65.66
2019-03-12T09:29:22.546Z,67.14
2019-03-12T09:32:40.404Z,66.10
2019-03-12T09:35:57.103Z,65.92
2019-03-12T09:39:04.995Z,65.80
2019-03-12T09:42:11.751Z,67.55
2019-03-12T09:45:24.740Z,67.55
2019-03-12T09:48:40.217Z,67.45
2019-03-12T09:51:38.524Z,69.73
2019-03-12T09:54:46.939Z,71.67
2019-03-12T09:58:02.209Z,72.59
2019-03-12T10:01:17.260Z,72.05
2019-03-12T10:04:23.646Z,71.73
2019-03-12T10:07:48.505Z,70.41
2019-03-12T10:10:54.064Z,70.84
2019-03-12T10:14:02.261Z,69.81
2019-03-12T10:17:10.213Z,71.06
2019-03-12T10:20:22.390Z,73.72
2019-03-12T10:23:31.298Z,77.79
2019-03-12T10:26:27.857Z,80.26
2019-03-12T10:29:36.382Z,80.20
2019-03-12T10:32:53.879Z,79.04
2019-03-12T10:36:11.863Z,79.35
2019-03-12T10:39:54.315Z,79.29
2019-03-12T10:43:13.105Z,82.43
2019-03-12T10:46:21.296Z,80.33
2019-03-12T10:49:11.489Z,79.82
2019-03-12T10:52:01.856Z,77.70
2019-03-12T10:54:52.071Z,80.48
2019-03-12T10:57:42.484Z,80.36
2019-03-12T11:00:36.721Z,78.06
2019-03-12T11:03:26.999Z,78.64
2019-03-12T11:06:17.169Z,79.87
2019-03-12T11:09:07.889Z,83.24
2019-03-12T11:11:58.607Z,84.93
2019-03-12T11:14:48.753Z,91.31
2019-03-12T11:17:48.879Z,94.15
2019-03-12T11:20:30.719Z,95.38
2019-03-12T11:23:20.732Z,98.03
2019-03-12T11:26:10.972Z,98.05
2019-03-12T11:29:01.132Z,97.30
2019-03-12T11:31:51.864Z,97.11
2019-03-12T11:34:42.044Z,98.41
2019-03-12T11:37:32.377Z,98.54
2019-03-12T11:40:22.886Z,97.52
2019-03-12T11:43:13.144Z,100.00
2019-03-12T11:46:03.576Z,100.00
2019-03-12T11:48:55.623Z,100.00
2019-03-12T11:51:45.996Z,100.00
2019-03-12T11:54:36.034Z,100.00
2019-03-12T11:57:26.335Z,100.00
2019-03-12T12:00:25.159Z,100.00
2019-03-12T12:03:15.192Z,100.00
2019-03-12T12:06:05.525Z,100.00
2019-03-12T12:08:55.736Z,100.00
2019-03-12T12:11:46.895Z,100.00
2019-03-12T12:14:38.243Z,100.00
2019-03-12T12:17:28.662Z,100.00
2019-03-12T12:20:28.772Z,100.00
2019-03-12T12:23:10.285Z,100.00
2019-03-12T12:26:00.625Z,100.00
2019-03-12T12:28:50.932Z,100.00
2019-03-12T12:31:41.338Z,100.00
2019-03-12T12:34:31.729Z,100.00
2019-03-12T12:37:21.796Z,100.00
2019-03-12T12:40:13.617Z,100.00
2019-03-12T12:43:03.895Z,100.00
2019-03-12T12:45:54.178Z,100.00
2019-03-12T12:48:45.348Z,100.00
2019-03-12T12:51:35.668Z,100.00
2019-03-12T12:54:25.810Z,100.00
2019-03-12T12:57:15.907Z,100.00
2019-03-12T13:00:06.912Z,100.00
2019-03-12T13:02:58.982Z,100.00
2019-03-12T13:05:49.229Z,100.00
2019-03-12T13:08:39.731Z,100.00
2019-03-12T13:11:30.086Z,100.00
2019-03-12T13:14:20.473Z,100.00
2019-03-12T13:17:10.660Z,100.00
2019-03-12T13:20:00.995Z,100.00
2019-03-12T13:22:51.302Z,100.00
2019-03-12T13:25:41.378Z,100.00
2019-03-12T13:28:32.633Z,100.00
2019-03-12T13:31:22.739Z,100.00
2019-03-12T13:34:12.918Z,100.00
2019-03-12T13:37:03.311Z,100.00
2019-03-12T13:39:53.729Z,100.00
2019-03-12T13:42:44.439Z,100.00
2019-03-12T13:45:34.665Z,100.00
2019-03-12T13:48:24.931Z,100.00
2019-03-12T13:51:15.052Z,100.00
2019-03-12T13:54:05.834Z,100.00
2019-03-12T13:56:55.800Z,100.00
2019-03-12T13:59:46.186Z,100.00
2019-03-12T14:02:36.544Z,100.00
2019-03-12T14:05:26.772Z,100.00
2019-03-12T14:08:17.048Z,100.00
2019-03-12T14:11:07.510Z,100.00
2019-03-12T14:13:57.759Z,100.00
2019-03-12T14:16:47.817Z,100.00
2019-03-12T14:19:38.055Z,100.00
2019-03-12T14:22:28.444Z,100.00
2019-03-12T14:25:18.744Z,100.00
2019-03-12T14:28:09.122Z,100.00
2019-03-12T14:31:02.177Z,100.00
2019-03-12T14:33:52.316Z,100.00
2019-03-12T14:36:42.606Z,100.00
2019-03-12T14:39:34.213Z,100.00
2019-03-12T14:42:24.651Z,100.00
2019-03-12T14:45:15.130Z,100.00
2019-03-12T14:48:06.391Z,100.00
2019-03-12T14:50:56.445Z,100.00
2019-03-12T14:53:47.916Z,100.00
2019-03-12T14:56:38.686Z,100.00
2019-03-12T14:59:28.983Z,100.00
2019-03-12T15:02:19.301Z,100.00
2019-03-12T15:05:09.551Z,100.00
2019-03-12T15:07:59.843Z,100.00
2019-03-12T15:10:50.143Z,100.00
2019-03-12T15:13:40.666Z,100.00
2019-03-12T15:16:30.906Z,100.00
2019-03-12T15:19:21.111Z,100.00
2019-03-12T15:22:11.256Z,100.00
2019-03-12T15:25:01.214Z,100.00
2019-03-12T15:27:52.538Z,100.00
2019-03-12T15:30:42.969Z,100.00
2019-03-12T15:33:33.350Z,100.00
2019-03-12T15:36:23.808Z,100.00
2019-03-12T15:39:14.024Z,100.00
2019-03-12T15:42:04.726Z,100.00
2019-03-12T15:44:54.703Z,100.00
2019-03-12T15:47:45.285Z,100.00
2019-03-12T15:50:35.431Z,100.00
2019-03-12T15:53:25.977Z,100.00
2019-03-12T15:56:16.350Z,100.00
2019-03-12T15:59:06.550Z,100.00
2019-03-12T16:01:56.812Z,100.00
2019-03-12T16:04:47.119Z,100.00
2019-03-12T16:07:37.385Z,100.00
2019-03-12T16:10:27.718Z,100.00
2019-03-12T16:13:18.142Z,100.00
2019-03-12T16:16:08.578Z,100.00
2019-03-12T16:18:58.959Z,100.00
2019-03-12T16:21:49.324Z,100.00
2019-03-12T16:24:39.309Z,100.00
2019-03-12T16:27:29.376Z,100.00
2019-03-12T16:30:19.604Z,100.00
2019-03-12T16:33:10.027Z,100.00
2019-03-12T16:36:00.178Z,100.00
2019-03-12T16:38:50.479Z,100.00
2019-03-12T16:41:40.863Z,100.00
2019-03-12T16:44:31.463Z,100.00
2019-03-12T16:47:21.765Z,100.00
2019-03-12T16:50:12.058Z,100.00
2019-03-12T16:53:02.100Z,100.00
2019-03-12T16:55:52.787Z,100.00
2019-03-12T16:58:43.191Z,100.00
2019-03-12T17:01:33.506Z,100.00
2019-03-12T17:04:23.847Z,100.00
2019-03-12T17:07:14.139Z,100.00
2019-03-12T17:10:04.567Z,100.00
2019-03-12T17:12:54.771Z,100.00
2019-03-12T17:15:47.068Z,100.00
2019-03-12T17:18:37.494Z,100.00
2019-03-12T17:21:27.840Z,100.00
2019-03-12T17:24:18.168Z,100.00
2019-03-12T17:27:08.561Z,100.00
2019-03-12T17:29:58.660Z,100.00
2019-03-12T17:32:48.923Z,100.00
2019-03-12T17:35:39.644Z,100.00
2019-03-12T17:38:45.534Z,100.00
2019-03-12T17:41:21.796Z,100.00
2019-03-12T17:44:12.058Z,100.00
2019-03-12T17:47:02.602Z,100.00
2019-03-12T17:49:53.098Z,100.00
2019-03-12T17:52:43.547Z,100.00
2019-03-12T17:55:33.711Z,100.00
2019-03-12T17:58:23.802Z,100.00
2019-03-12T18:01:13.901Z,100.00
2019-03-12T18:04:04.092Z,100.00
2019-03-12T18:06:54.298Z,100.00
2019-03-12T18:09:44.560Z,100.00
2019-03-12T18:12:34.912Z,100.00
2019-03-12T18:15:25.677Z,100.00
2019-03-12T18:18:15.967Z,100.00
2019-03-12T18:21:06.045Z,100.00
2019-03-12T18:23:56.272Z,100.00
2019-03-12T18:26:46.745Z,100.00
2019-03-12T18:29:36.939Z,100.00
2019-03-12T18:32:27.387Z,100.00
2019-03-12T18:35:17.755Z,100.00
2019-03-12T18:38:07.934Z,100.00
2019-03-12T18:40:58.250Z,100.00
2019-03-12T18:43:48.801Z,100.00
2019-03-12T18:46:39.363Z,100.00
2019-03-12T18:49:30.061Z,100.00
2019-03-12T18:52:21.527Z,100.00
2019-03-12T18:55:22.461Z,100.00
2019-03-12T18:58:12.659Z,100.00
2019-03-12T19:01:13.895Z,100.00
2019-03-12T19:04:04.323Z,100.00
2019-03-12T19:06:54.603Z,100.00
2019-03-12T19:09:44.937Z,100.00
2019-03-12T19:12:35.345Z,100.00
2019-03-12T19:15:25.613Z,100.00
2019-03-12T19:18:15.646Z,100.00
2019-03-12T19:21:05.640Z,100.00
2019-03-12T19:23:55.913Z,100.00
2019-03-12T19:26:46.367Z,100.00
2019-03-12T19:29:36.697Z,100.00
2019-03-12T19:32:37.325Z,100.00
2019-03-12T19:35:27.812Z,100.00
2019-03-12T19:38:17.992Z,100.00
2019-03-12T19:41:08.805Z,100.00
2019-03-12T19:43:59.189Z,100.00
2019-03-12T19:46:49.360Z,100.00
2019-03-12T19:49:40.672Z,100.00
2019-03-12T19:52:31.223Z,100.00
2019-03-12T19:55:24.319Z,100.00
2019-03-12T19:58:15.012Z,100.00
2019-03-12T20:01:05.450Z,100.00
2019-03-12T20:03:55.539Z,100.00
2019-03-12T20:06:46.942Z,100.00
2019-03-12T20:10:05.885Z,100.00
2019-03-12T20:13:41.777Z,100.00
2019-03-12T20:17:08.457Z,100.00
2019-03-12T20:20:28.950Z,100.00
2019-03-12T20:24:00.288Z,100.00
2019-03-12T20:27:44.948Z,100.00
2019-03-12T20:31:01.425Z,100.00
2019-03-12T20:34:32.964Z,100.00
2019-03-12T20:38:03.378Z,100.00
2019-03-12T20:52:10.012Z,100.00
2019-03-12T20:55:52.991Z,100.00
2019-03-12T20:59:19.166Z,100.00
2019-03-12T21:02:45.390Z,100.00
2019-03-12T21:06:14.460Z,100.00
2019-03-12T21:09:44.511Z,100.00
2019-03-12T21:13:23.635Z,100.00
2019-03-12T21:16:50.792Z,100.00
2019-03-12T21:20:17.342Z,100.00
2019-03-12T21:23:28.970Z,100.00
2019-03-12T21:26:59.668Z,100.00
2019-03-12T21:29:54.196Z,100.00
2019-03-12T21:32:44.752Z,100.00
2019-03-12T21:47:18.290Z,100.00
2019-03-12T21:50:08.733Z,100.00
2019-03-12T21:52:59.136Z,100.00
2019-03-12T21:55:49.474Z,100.00
2019-03-12T21:58:40.192Z,100.00
2019-03-12T22:01:30.515Z,100.00
2019-03-12T22:04:21.182Z,100.00
2019-03-12T22:07:11.602Z,100.00
2019-03-12T22:10:03.206Z,100.00
2019-03-12T22:12:55.405Z,100.00
2019-03-12T22:15:46.312Z,100.00
2019-03-12T22:18:36.713Z,100.00
2019-03-12T22:21:41.775Z,100.00
2019-03-12T22:24:31.711Z,100.00
2019-03-12T22:27:22.232Z,100.00
2019-03-12T22:30:18.076Z,100.00
2019-03-12T22:33:08.419Z,100.00
2019-03-12T22:35:59.701Z,100.00
2019-03-12T22:38:49.888Z,100.00
2019-03-12T22:41:40.158Z,100.00
2019-03-12T22:44:30.238Z,100.00
2019-03-12T22:47:20.623Z,100.00
2019-03-12T22:50:11.509Z,100.00
2019-03-12T22:53:01.986Z,100.00
2019-03-12T22:55:52.066Z,100.00
2019-03-12T22:58:42.349Z,100.00
2019-03-12T23:01:50.593Z,100.00
2019-03-12T23:04:58.941Z,100.00
2019-03-12T23:08:07.667Z,98.57
2019-03-12T23:10:58.138Z,100.00
2019-03-12T23:13:48.447Z,99.46
2019-03-12T23:16:39.679Z,100.00
2019-03-12T23:19:30.445Z,100.00
2019-03-12T23:22:23.457Z,100.00
2019-03-12T23:25:14.435Z,100.00
2019-03-12T23:28:05.752Z,99.81
2019-03-12T23:30:56.538Z,99.59
2019-03-12T23:33:46.900Z,99.90
2019-03-12T23:36:37.283Z,99.93
2019-03-12T23:39:27.354Z,97.69
2019-03-12T23:42:17.652Z,98.49
2019-03-12T23:45:08.201Z,97.99
2019-03-12T23:47:59.242Z,95.48
2019-03-12T23:50:49.580Z,95.48
2019-03-12T23:53:39.965Z,96.66
2019-03-12T23:56:30.243Z,95.30
2019-03-12T23:59:20.634Z,97.90
